createdAt,value
2018-04-16T00:00:23.292Z,99.90
2018-04-16T00:02:51.822Z,99.90
2018-04-16T00:05:20.300Z,99.90
2018-04-16T00:07:49.010Z,99.90
2018-04-16T00:10:17.514Z,99.90
2018-04-16T00:12:46.822Z,99.90
2018-04-16T00:15:15.362Z,99.90
2018-04-16T00:17:43.996Z,99.90
2018-04-16T00:20:13.148Z,99.90
2018-04-16T00:22:43.326Z,99.90
2018-04-16T00:25:11.986Z,99.90
2018-04-16T00:27:40.641Z,99.90
2018-04-16T00:30:09.211Z,99.90
2018-04-16T00:32:43.373Z,99.90
2018-04-16T00:35:17.389Z,99.90
2018-04-16T00:37:51.584Z,99.90
2018-04-16T00:40:25.806Z,99.90
2018-04-16T00:43:03.110Z,99.90
2018-04-16T00:45:37.170Z,99.90
2018-04-16T00:48:12.067Z,99.90
2018-04-16T00:50:48.054Z,99.90
2018-04-16T00:53:22.930Z,99.90
2018-04-16T00:55:56.957Z,99.90
2018-04-16T00:58:30.969Z,99.90
2018-04-16T01:01:05.145Z,99.90
2018-04-16T01:03:39.269Z,99.90
2018-04-16T01:06:14.147Z,99.90
2018-04-16T01:08:48.625Z,99.90
2018-04-16T01:11:22.812Z,99.90
2018-04-16T01:13:57.102Z,99.90
2018-04-16T01:19:36.422Z,99.90
2018-04-16T01:22:11.936Z,99.90
2018-04-16T01:24:47.100Z,99.90
2018-04-16T01:27:21.813Z,99.90
2018-04-16T01:29:55.828Z,99.90
2018-04-16T01:32:29.917Z,99.90
2018-04-16T01:35:04.801Z,99.90
2018-04-16T01:37:38.890Z,99.90
2018-04-16T01:40:13.078Z,99.90
2018-04-16T01:42:47.254Z,99.90
2018-04-16T01:48:33.066Z,99.90
2018-04-16T01:51:07.183Z,99.90
2018-04-16T01:53:41.485Z,99.90
2018-04-16T01:56:15.689Z,99.90
2018-04-16T01:58:49.921Z,99.90
2018-04-16T02:01:24.815Z,99.90
2018-04-16T02:03:59.844Z,99.90
2018-04-16T02:06:33.885Z,99.90
2018-04-16T02:09:08.627Z,99.90
2018-04-16T02:11:48.043Z,99.90
2018-04-16T02:14:22.311Z,99.90
2018-04-16T02:16:56.475Z,99.90
2018-04-16T02:19:30.406Z,99.90
2018-04-16T02:22:04.541Z,99.90
2018-04-16T02:24:38.510Z,99.90
2018-04-16T02:27:12.520Z,99.90
2018-04-16T02:29:46.802Z,99.90
2018-04-16T02:32:26.709Z,99.90
2018-04-16T02:35:00.677Z,99.90
2018-04-16T02:37:35.732Z,99.90
2018-04-16T02:40:09.677Z,99.90
2018-04-16T02:42:43.695Z,99.90
2018-04-16T02:45:17.860Z,99.90
2018-04-16T02:47:52.925Z,99.90
2018-04-16T02:50:27.170Z,99.90
2018-04-16T02:53:01.208Z,99.90
2018-04-16T02:55:35.572Z,99.90
2018-04-16T02:58:09.507Z,99.90
2018-04-16T03:00:43.656Z,99.90
2018-04-16T03:03:17.746Z,99.90
2018-04-16T03:09:05.579Z,99.90
2018-04-16T03:11:42.112Z,99.90
2018-04-16T03:14:16.060Z,99.90
2018-04-16T03:16:50.943Z,99.90
2018-04-16T03:19:25.077Z,99.90
2018-04-16T03:21:59.248Z,99.90
2018-04-16T03:24:33.257Z,99.90
2018-04-16T03:27:08.077Z,99.90
2018-04-16T03:29:42.052Z,99.90
2018-04-16T03:32:16.026Z,99.90
2018-04-16T03:34:50.828Z,99.90
2018-04-16T03:37:24.764Z,99.90
2018-04-16T03:39:58.852Z,99.90
2018-04-16T03:42:33.778Z,99.90
2018-04-16T03:45:07.764Z,99.90
2018-04-16T03:47:41.907Z,99.90
2018-04-16T03:50:16.782Z,99.90
2018-04-16T03:52:51.796Z,99.90
2018-04-16T03:58:28.189Z,99.90
2018-04-16T04:00:56.594Z,99.90
2018-04-16T04:03:25.006Z,99.90
2018-04-16T04:05:53.454Z,99.90
2018-04-16T04:08:22.013Z,99.90
2018-04-16T04:10:51.366Z,99.90
2018-04-16T04:13:19.787Z,99.90
2018-04-16T04:15:48.950Z,99.90
2018-04-16T04:18:18.181Z,99.90
2018-04-16T04:20:46.638Z,99.90
2018-04-16T04:23:30.319Z,99.90
2018-04-16T04:26:10.456Z,99.90
2018-04-16T04:28:50.665Z,99.90
2018-04-16T04:31:19.094Z,99.90
2018-04-16T04:33:48.263Z,99.90
2018-04-16T04:36:17.893Z,99.90
2018-04-16T04:38:46.337Z,99.90
2018-04-16T04:41:14.755Z,99.90
2018-04-16T04:43:44.711Z,99.90
2018-04-16T04:46:14.020Z,99.90
2018-04-16T04:48:42.502Z,99.90
2018-04-16T04:51:10.939Z,99.90
2018-04-16T04:53:39.338Z,99.90
2018-04-16T04:56:07.794Z,99.90
2018-04-16T04:58:36.212Z,99.90
2018-04-16T05:01:05.395Z,99.90
2018-04-16T05:03:33.800Z,99.90
2018-04-16T05:06:02.704Z,99.90
2018-04-16T05:08:31.982Z,99.90
2018-04-16T05:11:00.412Z,99.90
2018-04-16T05:13:28.856Z,99.90
2018-04-16T05:15:58.738Z,99.90
2018-04-16T05:18:28.175Z,99.90
2018-04-16T05:20:56.649Z,99.90
2018-04-16T05:23:25.141Z,99.90
2018-04-16T05:25:53.540Z,99.90
2018-04-16T05:28:22.142Z,99.90
2018-04-16T05:30:50.598Z,99.90
2018-04-16T05:33:19.308Z,99.90
2018-04-16T05:35:47.736Z,99.90
2018-04-16T05:38:18.576Z,99.90
2018-04-16T05:40:47.018Z,99.90
2018-04-16T05:43:15.461Z,99.90
2018-04-16T05:45:43.908Z,99.90
2018-04-16T05:48:12.527Z,99.90
2018-04-16T05:50:41.081Z,99.90
2018-04-16T05:53:10.255Z,99.90
2018-04-16T05:55:38.666Z,99.90
2018-04-16T05:58:07.119Z,99.90
2018-04-16T06:00:36.562Z,99.90
2018-04-16T06:03:05.745Z,99.90
2018-04-16T06:05:34.123Z,99.90
2018-04-16T06:08:02.558Z,99.90
2018-04-16T06:10:32.178Z,99.90
2018-04-16T06:13:00.797Z,99.90
2018-04-16T06:15:29.254Z,99.90
2018-04-16T06:17:59.517Z,99.90
2018-04-16T06:20:28.017Z,99.90
2018-04-16T06:22:56.677Z,99.90
2018-04-16T06:25:25.083Z,99.90
2018-04-16T06:27:53.688Z,99.90
2018-04-16T06:30:23.020Z,99.90
2018-04-16T06:32:52.186Z,99.90
2018-04-16T06:35:20.643Z,99.90
2018-04-16T06:37:49.140Z,99.90
2018-04-16T06:40:19.084Z,99.90
2018-04-16T06:42:47.612Z,99.90
2018-04-16T06:45:16.029Z,99.90
2018-04-16T06:47:44.583Z,99.90
2018-04-16T06:50:12.975Z,99.90
2018-04-16T06:52:41.454Z,99.90
2018-04-16T06:55:10.455Z,99.90
2018-04-16T06:57:44.530Z,99.90
2018-04-16T07:00:13.024Z,99.90
2018-04-16T07:02:42.066Z,99.90
2018-04-16T07:05:10.477Z,99.90
2018-04-16T07:07:38.902Z,99.90
2018-04-16T07:10:07.386Z,99.90
2018-04-16T07:12:35.778Z,99.90
2018-04-16T07:15:04.218Z,99.90
2018-04-16T07:17:32.651Z,99.90
2018-04-16T07:20:01.107Z,99.90
2018-04-16T07:22:29.699Z,99.90
2018-04-16T07:24:58.875Z,99.90
2018-04-16T07:27:27.299Z,99.90
2018-04-16T07:29:55.727Z,99.90
2018-04-16T07:32:24.356Z,99.90
2018-04-16T07:34:52.746Z,99.90
2018-04-16T07:37:21.923Z,99.90
2018-04-16T07:39:50.359Z,99.90
2018-04-16T07:42:18.916Z,99.90
2018-04-16T07:44:47.314Z,99.90
2018-04-16T07:47:16.459Z,99.90
2018-04-16T07:49:45.039Z,99.90
2018-04-16T07:52:14.395Z,99.90
2018-04-16T07:54:43.667Z,99.90
2018-04-16T07:57:12.080Z,99.90
2018-04-16T07:59:40.521Z,99.90
2018-04-16T08:02:09.143Z,99.90
2018-04-16T08:04:40.094Z,99.90
2018-04-16T08:07:09.297Z,99.90
2018-04-16T08:09:37.743Z,99.90
2018-04-16T08:12:06.141Z,99.90
2018-04-16T08:14:34.532Z,99.90
2018-04-16T08:17:02.963Z,99.90
2018-04-16T08:19:31.373Z,99.90
2018-04-16T08:21:59.763Z,99.90
2018-04-16T08:24:28.323Z,99.90
2018-04-16T08:27:01.098Z,99.90
2018-04-16T08:29:29.537Z,99.90
2018-04-16T08:31:58.771Z,99.90
2018-04-16T08:34:28.176Z,99.90
2018-04-16T08:36:57.381Z,99.90
2018-04-16T08:39:26.540Z,99.90
2018-04-16T08:41:55.120Z,99.90
2018-04-16T08:44:23.500Z,99.90
2018-04-16T08:46:51.892Z,99.90
2018-04-16T08:49:22.972Z,99.90
2018-04-16T08:51:52.181Z,99.90
2018-04-16T08:54:20.576Z,99.90
2018-04-16T08:56:49.021Z,99.90
2018-04-16T08:59:17.472Z,99.90
2018-04-16T09:01:46.199Z,99.90
2018-04-16T09:04:14.596Z,99.90
2018-04-16T09:06:43.063Z,99.90
2018-04-16T09:09:11.525Z,99.90
2018-04-16T09:11:43.873Z,99.90
2018-04-16T09:14:12.328Z,99.90
2018-04-16T09:16:40.935Z,99.90
2018-04-16T09:19:10.103Z,99.90
2018-04-16T09:21:38.623Z,99.90
2018-04-16T09:24:07.784Z,99.90
2018-04-16T09:26:36.237Z,99.90
2018-04-16T09:29:04.700Z,99.90
2018-04-16T09:31:33.309Z,99.90
2018-04-16T09:34:03.879Z,99.90
2018-04-16T09:36:32.504Z,99.90
2018-04-16T09:39:01.079Z,99.90
2018-04-16T09:41:30.281Z,99.90
2018-04-16T09:43:58.719Z,99.90
2018-04-16T09:46:27.131Z,99.90
2018-04-16T09:48:55.562Z,99.90
2018-04-16T09:51:24.736Z,99.90
2018-04-16T09:53:53.190Z,99.90
2018-04-16T09:56:21.623Z,99.90
2018-04-16T09:58:50.210Z,99.90
2018-04-16T10:01:22.187Z,99.90
2018-04-16T10:03:51.371Z,99.90
2018-04-16T10:06:19.775Z,99.90
2018-04-16T10:08:48.404Z,99.90
2018-04-16T10:11:16.804Z,99.90
2018-04-16T10:13:45.220Z,99.90
2018-04-16T10:16:14.397Z,99.90
2018-04-16T10:18:48.991Z,99.90
2018-04-16T10:21:20.021Z,99.90
2018-04-16T10:23:49.206Z,99.90
2018-04-16T10:26:18.357Z,99.90
2018-04-16T10:28:46.857Z,99.90
2018-04-16T10:31:15.284Z,99.90
2018-04-16T10:33:44.451Z,99.90
2018-04-16T10:36:12.894Z,99.90
2018-04-16T10:38:41.358Z,99.70
2018-04-16T10:41:09.927Z,98.00
2018-04-16T10:43:38.329Z,98.40
2018-04-16T10:46:07.475Z,98.90
2018-04-16T10:48:36.283Z,99.00
2018-04-16T10:51:04.929Z,99.30
2018-04-16T10:53:33.387Z,99.90
2018-04-16T10:56:02.600Z,99.90
2018-04-16T10:58:31.228Z,99.90
2018-04-16T11:01:00.465Z,99.20
2018-04-16T11:03:29.298Z,99.10
2018-04-16T11:06:01.052Z,99.10
2018-04-16T11:08:29.609Z,99.10
2018-04-16T11:10:58.060Z,98.40
2018-04-16T11:13:26.480Z,99.40
2018-04-16T11:15:55.009Z,99.80
2018-04-16T11:18:24.414Z,99.90
2018-04-16T11:20:53.516Z,99.90
2018-04-16T11:23:22.028Z,99.90
2018-04-16T11:25:50.915Z,99.90
2018-04-16T11:28:23.557Z,99.90
2018-04-16T11:30:52.172Z,99.90
2018-04-16T11:33:21.499Z,99.90
2018-04-16T11:35:49.885Z,99.90
2018-04-16T11:38:18.287Z,99.90
2018-04-16T11:40:46.698Z,99.90
2018-04-16T11:43:15.900Z,99.90
2018-04-16T11:45:44.303Z,99.90
2018-04-16T11:48:12.942Z,99.90
2018-04-16T11:50:46.780Z,99.90
2018-04-16T11:53:16.777Z,99.90
2018-04-16T11:55:45.224Z,99.90
2018-04-16T11:58:13.633Z,99.90
2018-04-16T12:00:47.957Z,99.90
2018-04-16T12:03:18.075Z,99.90
2018-04-16T12:05:46.480Z,99.90
2018-04-16T12:08:15.743Z,99.90
2018-04-16T12:10:44.339Z,99.90
2018-04-16T12:13:12.743Z,99.90
2018-04-16T12:15:41.210Z,99.90
2018-04-16T12:18:09.596Z,99.90
2018-04-16T12:20:38.055Z,99.90
2018-04-16T12:23:17.515Z,99.90
2018-04-16T12:25:47.072Z,99.90
2018-04-16T12:28:15.617Z,99.90
2018-04-16T12:30:44.048Z,99.90
2018-04-16T12:33:13.203Z,99.90
2018-04-16T12:35:41.626Z,99.90
2018-04-16T12:38:10.063Z,99.90
2018-04-16T12:40:38.464Z,99.90
2018-04-16T12:43:06.940Z,99.90
2018-04-16T12:45:35.396Z,99.90
2018-04-16T12:48:03.892Z,99.90
2018-04-16T12:50:32.329Z,99.90
2018-04-16T12:53:00.934Z,99.90
2018-04-16T12:55:30.842Z,99.90
2018-04-16T12:57:59.318Z,99.90
2018-04-16T13:00:27.839Z,99.90
2018-04-16T13:02:56.285Z,99.90
2018-04-16T13:05:25.188Z,99.90
2018-04-16T13:07:53.666Z,99.90
2018-04-16T13:10:22.057Z,99.90
2018-04-16T13:12:50.436Z,99.90
2018-04-16T13:15:19.069Z,99.90
2018-04-16T13:17:48.280Z,99.90
2018-04-16T13:20:16.705Z,99.90
2018-04-16T13:22:45.184Z,99.90
2018-04-16T13:25:13.608Z,99.90
2018-04-16T13:27:42.123Z,99.90
2018-04-16T13:30:10.541Z,99.90
2018-04-16T13:32:39.142Z,99.90
2018-04-16T13:35:07.562Z,99.90
2018-04-16T13:37:36.844Z,99.90
2018-04-16T13:40:06.054Z,99.90
2018-04-16T13:42:34.462Z,99.90
2018-04-16T13:45:03.229Z,99.90
2018-04-16T13:47:31.603Z,99.90
2018-04-16T13:50:00.907Z,99.90
2018-04-16T13:52:29.357Z,99.90
2018-04-16T13:57:41.253Z,99.90
2018-04-16T14:00:09.683Z,99.90
2018-04-16T14:02:38.299Z,99.90
2018-04-16T14:05:06.769Z,99.90
2018-04-16T14:07:35.184Z,99.90
2018-04-16T14:10:04.363Z,99.90
2018-04-16T14:12:33.033Z,99.90
2018-04-16T14:15:01.477Z,99.90
2018-04-16T14:17:29.907Z,99.90
2018-04-16T14:19:58.326Z,99.90
2018-04-16T14:22:32.001Z,99.90
2018-04-16T14:25:00.395Z,99.90
2018-04-16T14:27:30.131Z,99.90
2018-04-16T14:29:59.591Z,99.90
2018-04-16T14:32:28.414Z,99.90
2018-04-16T14:37:38.204Z,99.90
2018-04-16T14:40:06.726Z,99.90
2018-04-16T14:42:38.586Z,99.90
2018-04-16T14:45:07.093Z,99.90
2018-04-16T14:47:35.551Z,99.90
2018-04-16T14:50:04.261Z,99.90
2018-04-16T14:52:32.856Z,99.90
2018-04-16T14:55:02.316Z,99.90
2018-04-16T15:00:40.556Z,99.90
2018-04-16T15:03:14.325Z,99.90
2018-04-16T15:05:49.767Z,99.90
2018-04-16T15:08:19.939Z,99.90
2018-04-16T15:10:49.246Z,99.90
2018-04-16T15:13:20.228Z,99.90
2018-04-16T15:16:00.418Z,99.90
2018-04-16T15:18:30.961Z,99.90
2018-04-16T15:21:02.755Z,99.90
2018-04-16T15:23:32.163Z,99.90
2018-04-16T15:26:01.602Z,99.90
2018-04-16T15:28:35.598Z,99.90
2018-04-16T15:31:09.512Z,99.90
2018-04-16T15:33:44.558Z,99.90
2018-04-16T15:36:30.706Z,99.90
2018-04-16T15:39:07.157Z,99.90
2018-04-16T15:41:43.063Z,99.90
2018-04-16T15:44:17.144Z,99.90
2018-04-16T15:46:48.422Z,99.90
2018-04-16T15:49:17.912Z,99.90
2018-04-16T15:51:47.139Z,99.90
2018-04-16T15:54:19.044Z,99.90
2018-04-16T15:56:52.813Z,99.90
2018-04-16T15:59:22.834Z,99.90
2018-04-16T16:01:52.717Z,99.90
2018-04-16T16:04:21.747Z,99.90
2018-04-16T16:06:57.054Z,99.90
2018-04-16T16:09:26.396Z,99.90
2018-04-16T16:11:55.643Z,99.90
2018-04-16T16:14:24.393Z,99.90
2018-04-16T16:16:54.098Z,99.90
2018-04-16T16:19:22.624Z,99.90
2018-04-16T16:21:52.625Z,99.90
2018-04-16T16:24:21.124Z,99.90
2018-04-16T16:26:49.605Z,99.90
2018-04-16T16:29:22.795Z,99.90
2018-04-16T16:31:51.297Z,99.90
2018-04-16T16:34:19.896Z,99.90
2018-04-16T16:36:50.058Z,99.90
2018-04-16T16:39:21.691Z,99.90
2018-04-16T16:41:50.475Z,99.90
2018-04-16T16:44:20.122Z,99.90
2018-04-16T16:46:49.483Z,99.90
2018-04-16T16:49:20.054Z,99.90
2018-04-16T16:51:48.721Z,99.90
2018-04-16T16:54:17.304Z,99.90
2018-04-16T16:56:46.429Z,99.90
2018-04-16T16:59:15.073Z,99.90
2018-04-16T17:01:43.743Z,99.90
2018-04-16T17:04:12.428Z,99.90
2018-04-16T17:06:46.369Z,99.90
2018-04-16T17:09:16.025Z,99.90
2018-04-16T17:11:44.655Z,99.90
2018-04-16T17:14:15.799Z,99.90
2018-04-16T17:16:45.158Z,99.90
2018-04-16T17:19:16.118Z,99.90
2018-04-16T17:21:45.025Z,99.90
2018-04-16T17:24:13.809Z,99.90
2018-04-16T17:26:42.395Z,99.90
2018-04-16T17:29:16.398Z,99.90
2018-04-16T17:31:51.266Z,99.90
2018-04-16T17:34:19.883Z,99.90
2018-04-16T17:36:48.581Z,99.90
2018-04-16T17:39:17.233Z,99.90
2018-04-16T17:41:46.639Z,99.90
2018-04-16T17:44:15.334Z,99.90
2018-04-16T17:46:44.207Z,99.90
2018-04-16T17:49:13.004Z,99.90
2018-04-16T17:51:42.221Z,99.90
2018-04-16T17:54:16.173Z,99.90
2018-04-16T17:56:51.061Z,99.90
2018-04-16T17:59:26.065Z,99.90
2018-04-16T18:02:01.778Z,99.90
2018-04-16T18:04:35.941Z,99.90
2018-04-16T18:07:04.722Z,99.90
2018-04-16T18:09:33.409Z,99.90
2018-04-16T18:12:02.247Z,99.90
2018-04-16T18:14:30.978Z,99.90
2018-04-16T18:17:00.472Z,99.90
2018-04-16T18:19:29.457Z,99.90
2018-04-16T18:21:58.311Z,99.90
2018-04-16T18:24:27.240Z,99.90
2018-04-16T18:27:01.323Z,99.90
2018-04-16T18:29:35.971Z,99.90
2018-04-16T18:32:10.835Z,99.90
2018-04-16T18:34:45.243Z,99.90
2018-04-16T18:37:19.830Z,99.90
2018-04-16T18:39:53.933Z,99.90
2018-04-16T18:42:28.073Z,99.90
2018-04-16T18:44:58.355Z,99.90
2018-04-16T18:47:27.737Z,99.90
2018-04-16T18:49:57.616Z,99.90
2018-04-16T18:52:26.291Z,99.90
2018-04-16T18:54:55.041Z,99.90
2018-04-16T18:57:23.740Z,99.90
2018-04-16T18:59:53.215Z,99.90
2018-04-16T19:02:21.862Z,99.90
2018-04-16T19:04:52.284Z,99.90
2018-04-16T19:07:27.254Z,99.90
2018-04-16T19:10:04.327Z,99.90
2018-04-16T19:12:38.691Z,99.90
2018-04-16T19:15:12.901Z,99.90
2018-04-16T19:17:53.816Z,99.90
2018-04-16T19:20:33.997Z,99.90
2018-04-16T19:23:08.389Z,99.90
2018-04-16T19:25:39.815Z,99.90
2018-04-16T19:28:14.908Z,99.90
2018-04-16T19:30:44.728Z,99.90
2018-04-16T19:33:20.095Z,99.90
2018-04-16T19:35:50.024Z,99.90
2018-04-16T19:38:19.578Z,99.90
2018-04-16T19:40:49.803Z,99.90
2018-04-16T19:43:19.296Z,99.90
2018-04-16T19:45:53.357Z,99.90
2018-04-16T19:48:33.194Z,99.90
2018-04-16T19:51:07.973Z,99.90
2018-04-16T19:53:55.101Z,99.90
2018-04-16T19:56:38.271Z,99.90
2018-04-16T19:59:12.980Z,99.90
2018-04-16T20:01:52.798Z,99.90
2018-04-16T20:04:22.539Z,99.90
2018-04-16T20:06:52.298Z,99.90
2018-04-16T20:09:24.230Z,99.90
2018-04-16T20:11:54.152Z,99.90
2018-04-16T20:14:22.927Z,99.90
2018-04-16T20:16:52.440Z,99.90
2018-04-16T20:19:22.101Z,99.90
2018-04-16T20:21:51.679Z,99.90
2018-04-16T20:24:21.920Z,99.90
2018-04-16T20:26:57.524Z,99.90
2018-04-16T20:29:32.384Z,99.90
2018-04-16T20:32:06.735Z,99.90
2018-04-16T20:34:41.852Z,99.90
2018-04-16T20:37:16.820Z,99.90
2018-04-16T20:39:51.368Z,99.90
2018-04-16T20:42:26.371Z,99.90
2018-04-16T20:44:57.713Z,99.90
2018-04-16T20:47:26.389Z,99.90
2018-04-16T20:49:55.163Z,99.90
2018-04-16T20:52:24.895Z,99.90
2018-04-16T20:54:54.761Z,99.90
2018-04-16T20:57:24.217Z,99.90
2018-04-16T20:59:53.087Z,99.90
2018-04-16T21:02:21.991Z,99.90
2018-04-16T21:04:50.718Z,99.90
2018-04-16T21:07:25.352Z,99.90
2018-04-16T21:10:01.159Z,99.90
2018-04-16T21:12:35.184Z,99.90
2018-04-16T21:24:04.137Z,99.90
2018-04-16T21:26:39.742Z,99.90
2018-04-16T21:29:09.506Z,99.90
2018-04-16T21:31:39.556Z,99.90
2018-04-16T21:34:09.484Z,99.90
2018-04-16T21:36:38.496Z,99.90
2018-04-16T21:39:07.560Z,99.90
2018-04-16T21:41:37.173Z,99.90
2018-04-16T21:44:12.804Z,99.90
2018-04-16T21:46:47.027Z,99.90
2018-04-16T21:49:20.927Z,99.90
2018-04-16T21:51:52.958Z,99.90
2018-04-16T21:54:22.899Z,99.90
2018-04-16T21:56:52.770Z,99.90
2018-04-16T21:59:22.277Z,99.90
2018-04-16T22:01:51.450Z,99.90
2018-04-16T22:04:21.024Z,99.90
2018-04-16T22:06:49.717Z,99.90
2018-04-16T22:09:19.237Z,99.90
2018-04-16T22:12:01.604Z,99.90
2018-04-16T22:14:35.945Z,99.90
2018-04-16T22:17:07.022Z,99.90
2018-04-16T22:19:36.001Z,99.90
2018-04-16T22:22:04.838Z,99.90
2018-04-16T22:24:34.745Z,99.90
2018-04-16T22:27:05.479Z,99.90
2018-04-16T22:29:34.441Z,99.90
2018-04-16T22:32:03.636Z,99.90
2018-04-16T22:34:32.598Z,99.90
2018-04-16T22:37:06.710Z,99.90
2018-04-16T22:39:41.502Z,99.90
2018-04-16T22:42:15.448Z,99.90
2018-04-16T22:44:50.618Z,99.90
2018-04-16T22:47:24.781Z,99.90
2018-04-16T22:49:54.465Z,99.90
2018-04-16T22:52:23.132Z,99.90
2018-04-16T22:54:52.014Z,99.90
2018-04-16T22:57:21.152Z,99.90
2018-04-16T22:59:50.063Z,99.90
2018-04-16T23:02:19.661Z,99.90
2018-04-16T23:04:48.280Z,99.90
2018-04-16T23:07:17.458Z,99.90
2018-04-16T23:09:46.864Z,99.90
2018-04-16T23:12:21.106Z,99.90
2018-04-16T23:14:50.438Z,99.90
2018-04-16T23:17:20.041Z,99.90
2018-04-16T23:19:48.957Z,99.90
2018-04-16T23:22:17.772Z,99.90
2018-04-16T23:24:46.596Z,99.90
2018-04-16T23:27:15.313Z,99.90
2018-04-16T23:29:44.483Z,99.90
2018-04-16T23:32:13.526Z,99.90
2018-04-16T23:34:42.676Z,99.90
2018-04-16T23:37:16.003Z,99.90
2018-04-16T23:39:45.659Z,99.90
2018-04-16T23:42:14.909Z,99.90
2018-04-16T23:44:44.399Z,99.90
2018-04-16T23:47:16.883Z,99.90
2018-04-16T23:52:32.570Z,99.90
2018-04-16T23:55:03.767Z,99.90
2018-04-16T23:57:38.369Z,99.90
